LAN101 MHLM-MHTG
Flight info
| Callsign | LAN101 |
|---|---|
| Flight time | N/A |
| Altitude | 14000 |
| Route | TALAG1 TALAG TALAG1A |
| Aircraft | A320/M-SDE3FGHIRWY/LB1 |
Departure
| Time | 2026-05-05 08:01 |
|---|---|
| Airport | Ramón Villeda Morales International Airport (MHLM) |
Arrival
| Time | N/A |
|---|---|
| Airport | Toncontín Airport (MHTG) |
| Time | Latitude | Longitude | Altitude | Speed | Heading |
|---|---|---|---|---|---|
| 2026-05-05 07:41 | 15.45612 | -87.92608 | 104 ft | 0 kts | 312° |
| 2026-05-05 07:45 | 15.45606 | -87.92602 | 104 ft | 0 kts | 312° |
| 2026-05-05 07:45 | 15.45603 | -87.92598 | 104 ft | 0 kts | 312° |
| 2026-05-05 07:45 | 15.45587 | -87.92580 | 104 ft | 0 kts | 312° |
| 2026-05-05 07:45 | 15.45578 | -87.92569 | 104 ft | 0 kts | 312° |
| 2026-05-05 07:46 | 15.45569 | -87.92559 | 104 ft | 0 kts | 312° |
| 2026-05-05 07:46 | 15.45561 | -87.92547 | 104 ft | 0 kts | 285° |
| 2026-05-05 07:46 | 15.45564 | -87.92534 | 104 ft | 0 kts | 227° |
| 2026-05-05 07:46 | 15.45572 | -87.92526 | 104 ft | 0 kts | 222° |
| 2026-05-05 07:54 | 15.45572 | -87.92527 | 104 ft | 0 kts | 221° |
| 2026-05-05 07:54 | 15.45556 | -87.92537 | 104 ft | 8 kts | 200° |
| 2026-05-05 07:55 | 15.45492 | -87.92576 | 104 ft | 12 kts | 220° |
| 2026-05-05 07:55 | 15.45429 | -87.92631 | 104 ft | 9 kts | 221° |
| 2026-05-05 07:55 | 15.45388 | -87.92644 | 104 ft | 7 kts | 131° |
| 2026-05-05 07:55 | 15.45357 | -87.92606 | 104 ft | 7 kts | 129° |
| 2026-05-05 07:56 | 15.45323 | -87.92564 | 104 ft | 8 kts | 129° |
| 2026-05-05 07:56 | 15.45285 | -87.92519 | 104 ft | 8 kts | 157° |
| 2026-05-05 07:56 | 15.45237 | -87.92544 | 104 ft | 8 kts | 218° |
| 2026-05-05 07:56 | 15.45166 | -87.92607 | 104 ft | 17 kts | 220° |
| 2026-05-05 07:57 | 15.45075 | -87.92686 | 104 ft | 17 kts | 220° |
| 2026-05-05 07:57 | 15.44984 | -87.92766 | 104 ft | 17 kts | 220° |
| 2026-05-05 07:57 | 15.44894 | -87.92845 | 104 ft | 17 kts | 220° |
| 2026-05-05 07:57 | 15.44803 | -87.92925 | 104 ft | 17 kts | 220° |
| 2026-05-05 07:58 | 15.44711 | -87.93005 | 104 ft | 17 kts | 221° |
| 2026-05-05 07:58 | 15.44623 | -87.93084 | 104 ft | 11 kts | 220° |
| 2026-05-05 07:58 | 15.44599 | -87.93106 | 104 ft | 4 kts | 220° |
| 2026-05-05 07:58 | 15.44575 | -87.93115 | 104 ft | 4 kts | 159° |
| 2026-05-05 07:59 | 15.44548 | -87.93089 | 104 ft | 6 kts | 132° |
| 2026-05-05 07:59 | 15.44539 | -87.93079 | 104 ft | 0 kts | 131° |
| 2026-05-05 08:00 | 15.44509 | -87.93044 | 104 ft | 8 kts | 127° |
| 2026-05-05 08:00 | 15.44520 | -87.93005 | 104 ft | 0 kts | 41° |
| 2026-05-05 08:00 | 15.44558 | -87.92972 | 104 ft | 27 kts | 39° |
| 2026-05-05 08:01 | 15.44885 | -87.92687 | 104 ft | 94 kts | 40° |
| 2026-05-05 08:01 | 15.45541 | -87.92111 | 105 ft | 151 kts | 41° |
| 2026-05-05 08:01 | 15.46373 | -87.91393 | 638 ft | 156 kts | 40° |
| 2026-05-05 08:01 | 15.47205 | -87.90664 | 1308 ft | 157 kts | 41° |
| 2026-05-05 08:02 | 15.48058 | -87.89905 | 1834 ft | 175 kts | 42° |
| 2026-05-05 08:02 | 15.49052 | -87.89020 | 2176 ft | 198 kts | 42° |
| 2026-05-05 08:02 | 15.50156 | -87.88033 | 2561 ft | 223 kts | 42° |
| 2026-05-05 08:02 | 15.51370 | -87.86948 | 3224 ft | 239 kts | 42° |
| 2026-05-05 08:03 | 15.52672 | -87.85781 | 3863 ft | 253 kts | 40° |
| 2026-05-05 08:03 | 15.54033 | -87.84569 | 4656 ft | 263 kts | 40° |
| 2026-05-05 08:03 | 15.55415 | -87.83336 | 5516 ft | 267 kts | 41° |
| 2026-05-05 08:03 | 15.56833 | -87.82065 | 6335 ft | 272 kts | 40° |
| 2026-05-05 08:04 | 15.58279 | -87.80771 | 7130 ft | 277 kts | 41° |
| 2026-05-05 08:04 | 15.59748 | -87.79454 | 7905 ft | 281 kts | 41° |
| 2026-05-05 08:04 | 15.61239 | -87.78117 | 8665 ft | 286 kts | 41° |
| 2026-05-05 08:04 | 15.62753 | -87.76759 | 9412 ft | 290 kts | 41° |
| 2026-05-05 08:05 | 15.64281 | -87.75370 | 10143 ft | 295 kts | 45° |
| 2026-05-05 08:05 | 15.65436 | -87.73555 | 10495 ft | 311 kts | 70° |
| 2026-05-05 08:05 | 15.65761 | -87.71304 | 10958 ft | 324 kts | 94° |
| 2026-05-05 08:05 | 15.65165 | -87.69018 | 11480 ft | 337 kts | 116° |
| 2026-05-05 08:06 | 15.63714 | -87.67076 | 12002 ft | 349 kts | 138° |
| 2026-05-05 08:06 | 15.61680 | -87.65656 | 12535 ft | 359 kts | 155° |
| 2026-05-05 08:06 | 15.59254 | -87.64905 | 13090 ft | 369 kts | 166° |
| 2026-05-05 08:06 | 15.56788 | -87.64104 | 13640 ft | 375 kts | 158° |
| 2026-05-05 08:07 | 15.54285 | -87.63233 | 14054 ft | 387 kts | 160° |
| 2026-05-05 08:07 | 15.51658 | -87.62321 | 14022 ft | 406 kts | 159° |
| 2026-05-05 08:07 | 15.48988 | -87.61278 | 14004 ft | 412 kts | 156° |
| 2026-05-05 08:07 | 15.46335 | -87.60131 | 14005 ft | 414 kts | 155° |
| 2026-05-05 08:08 | 15.43701 | -87.58921 | 14006 ft | 414 kts | 154° |
| 2026-05-05 08:08 | 15.41068 | -87.57688 | 14021 ft | 415 kts | 154° |
| 2026-05-05 08:08 | 15.38463 | -87.56470 | 14021 ft | 415 kts | 154° |
| 2026-05-05 08:08 | 15.35818 | -87.55243 | 14023 ft | 416 kts | 154° |
| 2026-05-05 08:09 | 15.33176 | -87.54025 | 14025 ft | 416 kts | 154° |
| 2026-05-05 08:09 | 15.30530 | -87.52808 | 14027 ft | 416 kts | 154° |
| 2026-05-05 08:09 | 15.27871 | -87.51605 | 14030 ft | 416 kts | 155° |
| 2026-05-05 08:09 | 15.25211 | -87.50421 | 14033 ft | 416 kts | 155° |
| 2026-05-05 08:10 | 15.22543 | -87.49244 | 14037 ft | 416 kts | 155° |
| 2026-05-05 08:10 | 15.19874 | -87.48064 | 14040 ft | 417 kts | 155° |
| 2026-05-05 08:10 | 15.17209 | -87.46882 | 14044 ft | 417 kts | 155° |
| 2026-05-05 08:10 | 15.14540 | -87.45696 | 14048 ft | 417 kts | 155° |
| 2026-05-05 08:11 | 15.11876 | -87.44512 | 14053 ft | 417 kts | 155° |
| 2026-05-05 08:11 | 15.09210 | -87.43327 | 14058 ft | 417 kts | 155° |
| 2026-05-05 08:11 | 15.06581 | -87.42160 | 14062 ft | 417 kts | 155° |
| 2026-05-05 08:11 | 15.03915 | -87.40976 | 14068 ft | 417 kts | 155° |
| 2026-05-05 08:12 | 15.01245 | -87.39793 | 14072 ft | 417 kts | 155° |
| 2026-05-05 08:12 | 14.98566 | -87.38607 | 14078 ft | 417 kts | 155° |
| 2026-05-05 08:12 | 14.95896 | -87.37424 | 14082 ft | 418 kts | 155° |
| 2026-05-05 08:12 | 14.93228 | -87.36239 | 14088 ft | 418 kts | 155° |
| 2026-05-05 08:13 | 14.90557 | -87.35054 | 14092 ft | 418 kts | 155° |
| 2026-05-05 08:13 | 14.87882 | -87.33869 | 14097 ft | 418 kts | 155° |
| 2026-05-05 08:13 | 14.85207 | -87.32688 | 14101 ft | 418 kts | 155° |
| 2026-05-05 08:13 | 14.82530 | -87.31502 | 14108 ft | 418 kts | 155° |
| 2026-05-05 08:14 | 14.79859 | -87.30320 | 14111 ft | 418 kts | 155° |
| 2026-05-05 08:14 | 14.77179 | -87.29133 | 14115 ft | 418 kts | 155° |
| 2026-05-05 08:14 | 14.74506 | -87.27952 | 14119 ft | 418 kts | 155° |
| 2026-05-05 08:14 | 14.71826 | -87.26765 | 14123 ft | 418 kts | 155° |
| 2026-05-05 08:15 | 14.69153 | -87.25583 | 14126 ft | 418 kts | 155° |
| 2026-05-05 08:15 | 14.66507 | -87.24414 | 14130 ft | 419 kts | 155° |
| 2026-05-05 08:15 | 14.63823 | -87.23229 | 14132 ft | 419 kts | 155° |
| 2026-05-05 08:15 | 14.61131 | -87.22041 | 14138 ft | 419 kts | 155° |
| 2026-05-05 08:16 | 14.58452 | -87.20857 | 14133 ft | 419 kts | 154° |
| 2026-05-05 08:16 | 14.55778 | -87.19672 | 14071 ft | 416 kts | 155° |
| 2026-05-05 08:16 | 14.53159 | -87.18519 | 13960 ft | 400 kts | 155° |
| 2026-05-05 08:16 | 14.50656 | -87.17417 | 13834 ft | 383 kts | 154° |
| 2026-05-05 08:17 | 14.48253 | -87.16356 | 13597 ft | 368 kts | 154° |
| 2026-05-05 08:17 | 14.45939 | -87.15333 | 13349 ft | 355 kts | 154° |
| 2026-05-05 08:17 | 14.43593 | -87.14689 | 13096 ft | 347 kts | 174° |
| 2026-05-05 08:17 | 14.41218 | -87.14733 | 12848 ft | 337 kts | 184° |
| 2026-05-05 08:18 | 14.38931 | -87.15069 | 12595 ft | 327 kts | 188° |
| 2026-05-05 08:18 | 14.36722 | -87.15486 | 12343 ft | 318 kts | 189° |
| 2026-05-05 08:18 | 14.34596 | -87.15897 | 12094 ft | 311 kts | 189° |
| 2026-05-05 08:18 | 14.32489 | -87.16293 | 11841 ft | 304 kts | 188° |
| 2026-05-05 08:19 | 14.30428 | -87.16669 | 11555 ft | 298 kts | 188° |
| 2026-05-05 08:19 | 14.28426 | -87.17152 | 11139 ft | 297 kts | 204° |
| 2026-05-05 08:19 | 14.26716 | -87.18351 | 10715 ft | 298 kts | 222° |
| 2026-05-05 08:19 | 14.25461 | -87.20006 | 10427 ft | 291 kts | 246° |
| 2026-05-05 08:20 | 14.24804 | -87.21947 | 10220 ft | 283 kts | 252° |
| 2026-05-05 08:20 | 14.24089 | -87.23810 | 10023 ft | 275 kts | 245° |
| 2026-05-05 08:20 | 14.23281 | -87.25572 | 9845 ft | 268 kts | 245° |
| 2026-05-05 08:20 | 14.22496 | -87.27296 | 9586 ft | 264 kts | 240° |
| 2026-05-05 08:21 | 14.21344 | -87.28714 | 9331 ft | 254 kts | 220° |
| 2026-05-05 08:21 | 14.20007 | -87.29852 | 9157 ft | 244 kts | 218° |
| 2026-05-05 08:21 | 14.18760 | -87.30981 | 8999 ft | 234 kts | 222° |
| 2026-05-05 08:21 | 14.17597 | -87.32110 | 8744 ft | 229 kts | 222° |
| 2026-05-05 08:22 | 14.16346 | -87.33097 | 8288 ft | 231 kts | 203° |
| 2026-05-05 08:22 | 14.14821 | -87.33635 | 7858 ft | 233 kts | 188° |
| 2026-05-05 08:22 | 14.13209 | -87.33686 | 7436 ft | 232 kts | 168° |
| 2026-05-05 08:22 | 14.11681 | -87.33219 | 7072 ft | 227 kts | 156° |
| 2026-05-05 08:23 | 14.10244 | -87.32552 | 6668 ft | 225 kts | 154° |
| 2026-05-05 08:23 | 14.08884 | -87.31771 | 6251 ft | 223 kts | 140° |
| 2026-05-05 08:23 | 14.07808 | -87.30629 | 5890 ft | 221 kts | 126° |
| 2026-05-05 08:23 | 14.06939 | -87.29311 | 5403 ft | 224 kts | 122° |
| 2026-05-05 08:24 | 14.06128 | -87.27996 | 4987 ft | 209 kts | 123° |
| 2026-05-05 08:24 | 14.05377 | -87.26789 | 4648 ft | 189 kts | 125° |
| 2026-05-05 08:24 | 14.04703 | -87.25756 | 4505 ft | 160 kts | 128° |
| 2026-05-05 08:24 | 14.04100 | -87.24851 | 4304 ft | 150 kts | 122° |
| 2026-05-05 08:25 | 14.03829 | -87.23804 | 3940 ft | 156 kts | 87° |
| 2026-05-05 08:25 | 14.04137 | -87.22752 | 3671 ft | 151 kts | 60° |
| 2026-05-05 08:25 | 14.04789 | -87.22171 | 3412 ft | 148 kts | 18° |